メインページ
METAR-TAF:

METAR-TAF

空港 :

Mackenzie, ブリティッシュコロンビア州, カナダ

緯度: 55-18N, 経度: 123-08W, 海抜: 695m

現時点の気象観測

当レポートは53分前の03:00(UTC)に作成
の風 4kt
気温 5°C
湿度 65%
気圧 1020 hPa
視程: 14.5km
高度6500ftの曇り

METAR: CYZY 250300Z AUTO 01004KT 9SM OVC065 05/M01 A3011 RMK SLP231

時間: 20:53 (03:53 UTC)

予報

当レポートは3時間15分前の00:38(UTC)に作成
予報は25日の 01時(UTC)から 25日の 09時(UTC)まで有効
北/北西の風 8kt
視程: 10km
高度8000ftの雲は散在している
25日の 01時(UTC)から 25日の 04時(UTC)まで一時的に
高度7000ftの千切れ雲あり
25日の 0400時(UTC)から
北西の風 5kt
視程: 10km
高度1500ftの雲は散在している
高度7000ftの千切れ雲あり
25日の 04時(UTC)から 25日の 07時(UTC)まで一時的に
視程: 10km
高度1500ftの千切れ雲あり
高度6000ftの曇り
弱いにわか雨
25日の 0700時(UTC)から
変向風 3kt
視程: 4.8km
高度1500ftの曇り
小雨, 雪, 靄

TAF: CYZY 250038Z 2501/2509 34008KT P6SM SCT080 TEMPO 2501/2504 BKN070 FM250400 32005KT P6SM SCT015 BKN070 TEMPO 2504/2507 P6SM -SHRA BKN015 OVC060 FM250700 VRB03KT 3SM -RASN BR OVC015 RMK FCST BASED ON AUTO OBS. NXT FCST BY 250700Z

4,000以上の空港の気象観測と天気予報(METAR報とTAF報)

利用可能な観測所は地図上に黄色い丸と赤い丸で示す。

丸の上にカーソルを重ねると観測所名を参照できる。

次にクリックすると気象観測と天気予報を参照できる。

マップの切り替え:黒色「×」印の緑ボタンをクリックして拡大、「-」印の緑ボタンをクリックして縮小、緑色の三角印をクリックして隣りの地図に切り替え


METAR-TAF: